Terminal Aerodrome Forecast
Issued by NWS Caribou, ME

Current Version | Previous Version | Text Only | Print | Product List | Glossary On
Versions: 1 2 3 4 5 6 7 8 9 10 11 12 13
000 FTUS41 KCAR 290524 TAFCAR TAF KCAR 290524Z 2906/3006 16005KT 6SM -SHRA OVC015 FM290800 16005KT 4SM SHRA BR OVC008 FM291130 16006KT 6SM SHRA BR OVC012 FM291800 17009KT 5SM SHRA VCTS SCT010CB OVC020 FM292300 18008KT 5SM SHRA OVC020 FM300400 18005KT P6SM VCSH BKN028=

USA.gov is the U.S. government's official web portal to all federal, state and local government web resources and services.